Overview Statistics Trail Chart Weather Telemetry Raw packets
 

This is the latest recevied weather packets stored in our database for station/object CT4TX-11. If no packets are shown the sender has not sent any weather packets the latest 10 day(s).

<< 1 2 3 4 5 6 7 >>
Time Temp. Humidity Pressure Rain* Wind** Luminosity Snow
1788556884 32.78° C 38% 1006.5 hPa - - - -
1788555984 31.11° C 41% 1006.9 hPa - - - -
1788555084 31.67° C 41% 1006.7 hPa - - - -
1788554184 30.56° C 44% 1006.8 hPa - - - -
1788553283 32.22° C 43% 1006.5 hPa - - - -
1788552383 32.22° C 42% 1006.8 hPa - - - -
1788551483 32.22° C 43% 1006.5 hPa - - - -
1788550583 32.78° C 43% 1006.9 hPa - - - -
1788549682 32.78° C 42% 1007.2 hPa - - - -
1788548782 32.78° C 43% 1007 hPa - - - -
1788547907 33.33° C 41% 1006.9 hPa - - - -
1788546982 31.67° C 44% 1007.2 hPa - - - -
1788546081 32.78° C 42% 1006.7 hPa - - - -
1788545180 33.33° C 42% 1006.5 hPa - - - -
1788544280 33.89° C 41% 1007.1 hPa - - - -
1788543380 33.33° C 42% 1008.4 hPa - - - -
1788542479 33.33° C 41% 1008 hPa - - - -
1788541579 33.33° C 42% 1006.9 hPa - - - -
1788540679 32.78° C 43% 1006.5 hPa - - - -
1788539779 32.78° C 41% 1006.1 hPa - - - -
1788538879 33.89° C 43% 1006.7 hPa - - - -
1788537978 33.89° C 43% 1007 hPa - - - -
1788537084 33.89° C 43% 1007.9 hPa - - - -
1788536184 33.89° C 42% 1008.1 hPa - - - -
1788535284 33.89° C 43% 1008.2 hPa - - - -

* Rain since midnight (hover to see other rain measurements)
** Current wind speed in m/s (hover to see current wind gust speed)